sensor_id;sensor_type;location;lat;lon;timestamp;P1;durP1;ratioP1;P2;durP2;ratioP2
37477;SDS011;23334;54.316;10.182;2022-09-09T00:00:12;38.07;;;17.63;;
37477;SDS011;23334;54.316;10.182;2022-09-09T00:02:40;42.20;;;20.17;;
37477;SDS011;23334;54.316;10.182;2022-09-09T00:07:43;36.47;;;18.90;;
37477;SDS011;23334;54.316;10.182;2022-09-09T00:13:01;39.03;;;18.63;;
37477;SDS011;23334;54.316;10.182;2022-09-09T00:15:43;38.93;;;19.20;;
37477;SDS011;23334;54.316;10.182;2022-09-09T00:21:16;36.67;;;19.17;;
37477;SDS011;23334;54.316;10.182;2022-09-09T00:23:44;42.77;;;19.90;;
37477;SDS011;23334;54.316;10.182;2022-09-09T00:31:29;36.60;;;20.20;;
37477;SDS011;23334;54.316;10.182;2022-09-09T00:34:29;43.03;;;21.20;;
37477;SDS011;23334;54.316;10.182;2022-09-09T00:36:50;41.90;;;21.53;;
37477;SDS011;23334;54.316;10.182;2022-09-09T00:39:29;40.13;;;21.27;;
37477;SDS011;23334;54.316;10.182;2022-09-09T00:44:38;41.60;;;21.60;;
37477;SDS011;23334;54.316;10.182;2022-09-09T00:47:33;46.23;;;21.70;;
37477;SDS011;23334;54.316;10.182;2022-09-09T00:50:29;44.20;;;21.30;;
37477;SDS011;23334;54.316;10.182;2022-09-09T00:53:41;38.77;;;21.50;;
37477;SDS011;23334;54.316;10.182;2022-09-09T00:56:25;42.47;;;21.07;;
37477;SDS011;23334;54.316;10.182;2022-09-09T01:02:22;48.67;;;22.00;;
37477;SDS011;23334;54.316;10.182;2022-09-09T01:04:53;41.37;;;20.60;;
37477;SDS011;23334;54.316;10.182;2022-09-09T01:07:19;42.27;;;21.40;;
37477;SDS011;23334;54.316;10.182;2022-09-09T01:09:58;40.47;;;19.80;;
37477;SDS011;23334;54.316;10.182;2022-09-09T01:12:41;45.30;;;22.50;;
37477;SDS011;23334;54.316;10.182;2022-09-09T01:15:12;40.17;;;20.50;;
37477;SDS011;23334;54.316;10.182;2022-09-09T01:22:50;42.13;;;20.50;;
37477;SDS011;23334;54.316;10.182;2022-09-09T01:28:09;41.17;;;20.60;;
37477;SDS011;23334;54.316;10.182;2022-09-09T01:30:38;39.17;;;21.83;;
37477;SDS011;23334;54.316;10.182;2022-09-09T01:33:07;38.40;;;20.37;;
37477;SDS011;23334;54.316;10.182;2022-09-09T01:35:55;38.73;;;20.20;;
37477;SDS011;23334;54.316;10.182;2022-09-09T01:38:28;42.77;;;20.63;;
37477;SDS011;23334;54.316;10.182;2022-09-09T01:40:54;37.87;;;19.07;;
37477;SDS011;23334;54.316;10.182;2022-09-09T01:43:20;39.13;;;18.90;;
37477;SDS011;23334;54.316;10.182;2022-09-09T01:45:47;36.57;;;18.13;;
37477;SDS011;23334;54.316;10.182;2022-09-09T01:48:16;39.40;;;18.83;;
37477;SDS011;23334;54.316;10.182;2022-09-09T01:50:44;37.73;;;18.10;;
37477;SDS011;23334;54.316;10.182;2022-09-09T01:53:09;40.20;;;18.87;;
37477;SDS011;23334;54.316;10.182;2022-09-09T01:55:40;39.17;;;17.70;;
37477;SDS011;23334;54.316;10.182;2022-09-09T01:58:17;41.10;;;17.87;;
37477;SDS011;23334;54.316;10.182;2022-09-09T02:01:00;36.43;;;18.40;;
37477;SDS011;23334;54.316;10.182;2022-09-09T02:03:32;33.50;;;17.27;;
37477;SDS011;23334;54.316;10.182;2022-09-09T02:06:04;31.33;;;16.60;;
37477;SDS011;23334;54.316;10.182;2022-09-09T02:08:38;35.47;;;17.57;;
37477;SDS011;23334;54.316;10.182;2022-09-09T02:11:13;34.77;;;17.43;;
37477;SDS011;23334;54.316;10.182;2022-09-09T02:13:40;33.97;;;16.50;;
37477;SDS011;23334;54.316;10.182;2022-09-09T02:18:51;29.97;;;15.90;;
37477;SDS011;23334;54.316;10.182;2022-09-09T02:21:31;31.27;;;16.60;;
37477;SDS011;23334;54.316;10.182;2022-09-09T02:24:00;36.03;;;17.13;;
37477;SDS011;23334;54.316;10.182;2022-09-09T02:26:29;37.63;;;17.80;;
37477;SDS011;23334;54.316;10.182;2022-09-09T02:28:57;35.43;;;17.50;;
37477;SDS011;23334;54.316;10.182;2022-09-09T02:31:26;39.63;;;19.67;;
37477;SDS011;23334;54.316;10.182;2022-09-09T02:33:52;37.10;;;18.77;;
37477;SDS011;23334;54.316;10.182;2022-09-09T02:36:23;32.00;;;17.00;;
37477;SDS011;23334;54.316;10.182;2022-09-09T02:38:50;38.27;;;18.73;;
37477;SDS011;23334;54.316;10.182;2022-09-09T02:41:24;35.30;;;17.70;;
37477;SDS011;23334;54.316;10.182;2022-09-09T02:43:55;36.67;;;18.07;;
37477;SDS011;23334;54.316;10.182;2022-09-09T02:49:27;43.30;;;19.70;;
37477;SDS011;23334;54.316;10.182;2022-09-09T02:54:40;43.30;;;19.93;;
37477;SDS011;23334;54.316;10.182;2022-09-09T02:57:17;42.90;;;19.43;;
37477;SDS011;23334;54.316;10.182;2022-09-09T02:59:46;43.73;;;18.77;;
37477;SDS011;23334;54.316;10.182;2022-09-09T03:02:13;45.93;;;20.73;;
37477;SDS011;23334;54.316;10.182;2022-09-09T03:04:39;60.13;;;21.37;;
37477;SDS011;23334;54.316;10.182;2022-09-09T03:07:07;60.43;;;23.10;;
37477;SDS011;23334;54.316;10.182;2022-09-09T03:09:33;56.73;;;21.80;;
37477;SDS011;23334;54.316;10.182;2022-09-09T03:11:58;49.90;;;20.80;;
37477;SDS011;23334;54.316;10.182;2022-09-09T03:14:25;60.73;;;23.90;;
37477;SDS011;23334;54.316;10.182;2022-09-09T03:16:51;56.23;;;23.07;;
37477;SDS011;23334;54.316;10.182;2022-09-09T03:19:17;65.03;;;24.30;;
37477;SDS011;23334;54.316;10.182;2022-09-09T03:21:43;63.47;;;25.10;;
37477;SDS011;23334;54.316;10.182;2022-09-09T03:24:09;59.53;;;24.40;;
37477;SDS011;23334;54.316;10.182;2022-09-09T03:26:35;60.40;;;24.27;;
37477;SDS011;23334;54.316;10.182;2022-09-09T03:29:02;57.30;;;23.73;;
37477;SDS011;23334;54.316;10.182;2022-09-09T03:31:30;67.97;;;23.80;;
37477;SDS011;23334;54.316;10.182;2022-09-09T03:33:59;61.93;;;23.63;;
37477;SDS011;23334;54.316;10.182;2022-09-09T03:36:25;70.10;;;25.93;;
37477;SDS011;23334;54.316;10.182;2022-09-09T03:38:51;64.03;;;24.13;;
37477;SDS011;23334;54.316;10.182;2022-09-09T03:41:17;60.37;;;22.73;;
37477;SDS011;23334;54.316;10.182;2022-09-09T03:43:43;71.77;;;25.50;;
37477;SDS011;23334;54.316;10.182;2022-09-09T03:46:09;61.07;;;22.27;;
37477;SDS011;23334;54.316;10.182;2022-09-09T03:48:35;56.50;;;22.80;;
37477;SDS011;23334;54.316;10.182;2022-09-09T03:51:00;62.30;;;22.60;;
37477;SDS011;23334;54.316;10.182;2022-09-09T03:53:26;62.30;;;23.67;;
37477;SDS011;23334;54.316;10.182;2022-09-09T03:55:53;60.73;;;22.17;;
37477;SDS011;23334;54.316;10.182;2022-09-09T03:58:20;59.10;;;22.73;;
37477;SDS011;23334;54.316;10.182;2022-09-09T04:00:52;60.00;;;23.07;;
37477;SDS011;23334;54.316;10.182;2022-09-09T04:03:22;56.90;;;22.90;;
37477;SDS011;23334;54.316;10.182;2022-09-09T04:05:49;56.80;;;20.90;;
37477;SDS011;23334;54.316;10.182;2022-09-09T04:08:19;55.50;;;23.23;;
37477;SDS011;23334;54.316;10.182;2022-09-09T04:10:46;58.67;;;23.00;;
37477;SDS011;23334;54.316;10.182;2022-09-09T04:13:12;52.67;;;21.67;;
37477;SDS011;23334;54.316;10.182;2022-09-09T04:15:39;57.07;;;22.50;;
37477;SDS011;23334;54.316;10.182;2022-09-09T04:18:05;53.27;;;21.00;;
37477;SDS011;23334;54.316;10.182;2022-09-09T04:20:31;63.70;;;21.80;;
37477;SDS011;23334;54.316;10.182;2022-09-09T04:22:57;57.33;;;23.10;;
37477;SDS011;23334;54.316;10.182;2022-09-09T04:25:23;58.00;;;21.70;;
37477;SDS011;23334;54.316;10.182;2022-09-09T04:27:52;73.67;;;25.17;;
37477;SDS011;23334;54.316;10.182;2022-09-09T04:30:19;59.17;;;23.23;;
37477;SDS011;23334;54.316;10.182;2022-09-09T04:32:45;57.07;;;22.00;;
37477;SDS011;23334;54.316;10.182;2022-09-09T04:35:11;58.27;;;21.10;;
37477;SDS011;23334;54.316;10.182;2022-09-09T04:37:37;61.90;;;22.70;;
37477;SDS011;23334;54.316;10.182;2022-09-09T04:40:02;53.60;;;21.33;;
37477;SDS011;23334;54.316;10.182;2022-09-09T04:42:28;57.27;;;22.53;;
37477;SDS011;23334;54.316;10.182;2022-09-09T04:44:53;56.87;;;22.50;;
37477;SDS011;23334;54.316;10.182;2022-09-09T04:47:19;61.30;;;21.53;;
37477;SDS011;23334;54.316;10.182;2022-09-09T04:49:44;50.03;;;20.53;;
37477;SDS011;23334;54.316;10.182;2022-09-09T04:52:10;64.47;;;21.33;;
37477;SDS011;23334;54.316;10.182;2022-09-09T04:54:36;61.30;;;22.87;;
37477;SDS011;23334;54.316;10.182;2022-09-09T04:57:02;52.87;;;21.60;;
37477;SDS011;23334;54.316;10.182;2022-09-09T04:59:27;55.63;;;20.63;;
37477;SDS011;23334;54.316;10.182;2022-09-09T05:01:53;53.90;;;23.07;;
37477;SDS011;23334;54.316;10.182;2022-09-09T05:04:20;58.27;;;21.90;;
37477;SDS011;23334;54.316;10.182;2022-09-09T05:06:45;49.90;;;21.20;;
37477;SDS011;23334;54.316;10.182;2022-09-09T05:09:11;58.87;;;22.87;;
37477;SDS011;23334;54.316;10.182;2022-09-09T05:11:36;49.57;;;20.83;;
37477;SDS011;23334;54.316;10.182;2022-09-09T05:14:03;55.73;;;22.10;;
37477;SDS011;23334;54.316;10.182;2022-09-09T05:16:29;53.80;;;21.23;;
37477;SDS011;23334;54.316;10.182;2022-09-09T05:18:55;61.23;;;22.70;;
37477;SDS011;23334;54.316;10.182;2022-09-09T05:21:21;55.43;;;22.10;;
37477;SDS011;23334;54.316;10.182;2022-09-09T05:23:49;52.27;;;21.53;;
37477;SDS011;23334;54.316;10.182;2022-09-09T05:26:16;53.37;;;22.37;;
37477;SDS011;23334;54.316;10.182;2022-09-09T05:28:43;54.70;;;22.43;;
37477;SDS011;23334;54.316;10.182;2022-09-09T05:31:10;49.63;;;21.90;;
37477;SDS011;23334;54.316;10.182;2022-09-09T05:33:37;53.43;;;21.77;;
37477;SDS011;23334;54.316;10.182;2022-09-09T05:36:06;57.53;;;22.93;;
37477;SDS011;23334;54.316;10.182;2022-09-09T05:38:34;53.40;;;22.87;;
37477;SDS011;23334;54.316;10.182;2022-09-09T05:41:00;58.87;;;24.57;;
37477;SDS011;23334;54.316;10.182;2022-09-09T05:43:27;59.03;;;22.43;;
37477;SDS011;23334;54.316;10.182;2022-09-09T05:46:01;50.43;;;20.77;;
37477;SDS011;23334;54.316;10.182;2022-09-09T05:48:31;55.17;;;22.80;;
37477;SDS011;23334;54.316;10.182;2022-09-09T05:50:58;43.33;;;20.50;;
37477;SDS011;23334;54.316;10.182;2022-09-09T05:53:24;54.50;;;22.90;;
37477;SDS011;23334;54.316;10.182;2022-09-09T05:55:57;52.33;;;22.83;;
37477;SDS011;23334;54.316;10.182;2022-09-09T05:58:24;47.93;;;21.30;;
37477;SDS011;23334;54.316;10.182;2022-09-09T06:00:50;48.23;;;20.93;;
37477;SDS011;23334;54.316;10.182;2022-09-09T06:03:15;55.07;;;20.37;;
37477;SDS011;23334;54.316;10.182;2022-09-09T06:05:43;49.70;;;20.30;;
37477;SDS011;23334;54.316;10.182;2022-09-09T06:08:08;54.77;;;21.13;;
37477;SDS011;23334;54.316;10.182;2022-09-09T06:10:34;65.17;;;21.83;;
37477;SDS011;23334;54.316;10.182;2022-09-09T06:12:59;58.33;;;21.83;;
37477;SDS011;23334;54.316;10.182;2022-09-09T06:15:25;54.90;;;22.97;;
37477;SDS011;23334;54.316;10.182;2022-09-09T06:17:55;54.87;;;21.10;;
37477;SDS011;23334;54.316;10.182;2022-09-09T06:20:20;66.30;;;21.67;;
37477;SDS011;23334;54.316;10.182;2022-09-09T06:22:47;58.97;;;20.13;;
37477;SDS011;23334;54.316;10.182;2022-09-09T06:25:13;56.13;;;21.23;;
37477;SDS011;23334;54.316;10.182;2022-09-09T06:27:40;46.73;;;20.37;;
37477;SDS011;23334;54.316;10.182;2022-09-09T06:30:07;63.70;;;20.77;;
37477;SDS011;23334;54.316;10.182;2022-09-09T06:32:34;58.27;;;22.33;;
37477;SDS011;23334;54.316;10.182;2022-09-09T06:35:05;55.97;;;19.63;;
37477;SDS011;23334;54.316;10.182;2022-09-09T06:37:31;58.27;;;22.17;;
37477;SDS011;23334;54.316;10.182;2022-09-09T06:39:57;57.43;;;20.73;;
37477;SDS011;23334;54.316;10.182;2022-09-09T06:42:23;55.67;;;20.53;;
37477;SDS011;23334;54.316;10.182;2022-09-09T06:44:50;59.20;;;20.60;;
37477;SDS011;23334;54.316;10.182;2022-09-09T06:47:15;51.87;;;21.37;;
37477;SDS011;23334;54.316;10.182;2022-09-09T06:49:41;58.87;;;21.00;;
37477;SDS011;23334;54.316;10.182;2022-09-09T06:52:08;60.80;;;21.80;;
37477;SDS011;23334;54.316;10.182;2022-09-09T06:54:34;53.70;;;20.03;;
37477;SDS011;23334;54.316;10.182;2022-09-09T06:57:02;48.77;;;19.57;;
37477;SDS011;23334;54.316;10.182;2022-09-09T06:59:27;50.13;;;20.13;;
37477;SDS011;23334;54.316;10.182;2022-09-09T07:01:55;47.57;;;20.30;;
37477;SDS011;23334;54.316;10.182;2022-09-09T07:04:21;46.30;;;19.53;;
37477;SDS011;23334;54.316;10.182;2022-09-09T07:06:49;50.03;;;18.83;;
37477;SDS011;23334;54.316;10.182;2022-09-09T07:09:15;43.93;;;19.57;;
37477;SDS011;23334;54.316;10.182;2022-09-09T07:11:45;43.57;;;20.60;;
37477;SDS011;23334;54.316;10.182;2022-09-09T07:14:12;40.70;;;19.00;;
37477;SDS011;23334;54.316;10.182;2022-09-09T07:16:38;35.30;;;18.20;;
37477;SDS011;23334;54.316;10.182;2022-09-09T07:19:05;51.70;;;17.80;;
37477;SDS011;23334;54.316;10.182;2022-09-09T07:21:30;33.33;;;16.97;;
37477;SDS011;23334;54.316;10.182;2022-09-09T07:23:59;35.07;;;16.57;;
37477;SDS011;23334;54.316;10.182;2022-09-09T07:26:29;32.50;;;16.20;;
37477;SDS011;23334;54.316;10.182;2022-09-09T07:28:55;46.47;;;18.97;;
37477;SDS011;23334;54.316;10.182;2022-09-09T07:31:26;28.93;;;15.17;;
37477;SDS011;23334;54.316;10.182;2022-09-09T07:33:53;31.33;;;16.23;;
37477;SDS011;23334;54.316;10.182;2022-09-09T07:36:20;34.70;;;17.60;;
37477;SDS011;23334;54.316;10.182;2022-09-09T07:38:52;30.87;;;16.47;;
37477;SDS011;23334;54.316;10.182;2022-09-09T07:41:21;31.03;;;16.63;;
37477;SDS011;23334;54.316;10.182;2022-09-09T07:43:48;33.93;;;16.20;;
37477;SDS011;23334;54.316;10.182;2022-09-09T07:46:16;28.80;;;16.20;;
37477;SDS011;23334;54.316;10.182;2022-09-09T07:48:46;33.50;;;16.30;;
37477;SDS011;23334;54.316;10.182;2022-09-09T07:51:16;30.70;;;15.80;;
37477;SDS011;23334;54.316;10.182;2022-09-09T07:53:43;31.47;;;16.50;;
37477;SDS011;23334;54.316;10.182;2022-09-09T07:56:10;26.37;;;15.40;;
37477;SDS011;23334;54.316;10.182;2022-09-09T07:58:38;27.07;;;14.60;;
37477;SDS011;23334;54.316;10.182;2022-09-09T08:01:10;29.00;;;15.73;;
37477;SDS011;23334;54.316;10.182;2022-09-09T08:03:38;25.20;;;15.57;;
37477;SDS011;23334;54.316;10.182;2022-09-09T08:06:04;27.57;;;15.80;;
37477;SDS011;23334;54.316;10.182;2022-09-09T08:08:32;21.33;;;13.27;;
37477;SDS011;23334;54.316;10.182;2022-09-09T08:11:06;21.20;;;13.90;;
37477;SDS011;23334;54.316;10.182;2022-09-09T08:13:32;30.53;;;13.67;;
37477;SDS011;23334;54.316;10.182;2022-09-09T08:16:16;26.10;;;13.40;;
37477;SDS011;23334;54.316;10.182;2022-09-09T08:18:46;25.33;;;12.30;;
37477;SDS011;23334;54.316;10.182;2022-09-09T08:21:16;22.47;;;11.60;;
37477;SDS011;23334;54.316;10.182;2022-09-09T08:23:43;22.47;;;11.53;;
37477;SDS011;23334;54.316;10.182;2022-09-09T08:26:13;24.57;;;11.63;;
37477;SDS011;23334;54.316;10.182;2022-09-09T08:28:47;19.27;;;10.83;;
37477;SDS011;23334;54.316;10.182;2022-09-09T08:31:17;14.07;;;9.53;;
37477;SDS011;23334;54.316;10.182;2022-09-09T08:33:44;18.40;;;10.93;;
37477;SDS011;23334;54.316;10.182;2022-09-09T08:36:14;27.67;;;10.60;;
37477;SDS011;23334;54.316;10.182;2022-09-09T08:38:43;19.07;;;10.60;;
37477;SDS011;23334;54.316;10.182;2022-09-09T08:44:05;14.63;;;10.30;;
37477;SDS011;23334;54.316;10.182;2022-09-09T08:47:02;15.40;;;10.30;;
37477;SDS011;23334;54.316;10.182;2022-09-09T08:54:57;22.07;;;12.40;;
37477;SDS011;23334;54.316;10.182;2022-09-09T08:57:28;16.10;;;11.23;;
37477;SDS011;23334;54.316;10.182;2022-09-09T08:59:57;19.57;;;12.23;;
37477;SDS011;23334;54.316;10.182;2022-09-09T09:02:30;16.30;;;11.60;;
37477;SDS011;23334;54.316;10.182;2022-09-09T09:05:12;19.00;;;12.43;;
37477;SDS011;23334;54.316;10.182;2022-09-09T09:08:08;23.27;;;13.90;;
37477;SDS011;23334;54.316;10.182;2022-09-09T09:10:56;19.70;;;11.80;;
37477;SDS011;23334;54.316;10.182;2022-09-09T09:16:14;15.33;;;12.20;;
37477;SDS011;23334;54.316;10.182;2022-09-09T09:18:51;16.33;;;12.53;;
37477;SDS011;23334;54.316;10.182;2022-09-09T09:21:19;15.30;;;12.57;;
37477;SDS011;23334;54.316;10.182;2022-09-09T09:23:55;17.67;;;13.00;;
37477;SDS011;23334;54.316;10.182;2022-09-09T09:26:28;17.77;;;13.20;;
37477;SDS011;23334;54.316;10.182;2022-09-09T09:28:56;18.40;;;12.43;;
37477;SDS011;23334;54.316;10.182;2022-09-09T09:31:25;16.07;;;12.40;;
37477;SDS011;23334;54.316;10.182;2022-09-09T09:33:55;19.97;;;13.20;;
37477;SDS011;23334;54.316;10.182;2022-09-09T09:36:42;19.07;;;12.50;;
37477;SDS011;23334;54.316;10.182;2022-09-09T09:39:22;16.30;;;11.97;;
37477;SDS011;23334;54.316;10.182;2022-09-09T09:41:49;15.33;;;11.50;;
37477;SDS011;23334;54.316;10.182;2022-09-09T09:44:30;14.87;;;12.40;;
37477;SDS011;23334;54.316;10.182;2022-09-09T09:47:08;15.40;;;12.03;;
37477;SDS011;23334;54.316;10.182;2022-09-09T09:49:39;10.30;;;9.20;;
37477;SDS011;23334;54.316;10.182;2022-09-09T09:52:15;13.73;;;9.03;;
37477;SDS011;23334;54.316;10.182;2022-09-09T09:54:45;12.20;;;9.40;;
37477;SDS011;23334;54.316;10.182;2022-09-09T09:57:12;12.90;;;9.93;;
37477;SDS011;23334;54.316;10.182;2022-09-09T09:59:39;13.83;;;10.17;;
37477;SDS011;23334;54.316;10.182;2022-09-09T10:02:10;18.63;;;11.20;;
37477;SDS011;23334;54.316;10.182;2022-09-09T10:04:39;11.40;;;10.20;;
37477;SDS011;23334;54.316;10.182;2022-09-09T10:07:13;11.50;;;8.33;;
37477;SDS011;23334;54.316;10.182;2022-09-09T10:09:43;9.37;;;8.43;;
37477;SDS011;23334;54.316;10.182;2022-09-09T10:17:40;18.13;;;8.50;;
37477;SDS011;23334;54.316;10.182;2022-09-09T10:20:44;11.63;;;6.73;;
37477;SDS011;23334;54.316;10.182;2022-09-09T10:36:40;4.40;;;3.90;;
37477;SDS011;23334;54.316;10.182;2022-09-09T10:42:05;5.30;;;4.60;;
37477;SDS011;23334;54.316;10.182;2022-09-09T10:55:45;10.10;;;3.90;;
37477;SDS011;23334;54.316;10.182;2022-09-09T10:58:27;11.90;;;4.47;;
37477;SDS011;23334;54.316;10.182;2022-09-09T11:01:00;3.30;;;3.00;;
37477;SDS011;23334;54.316;10.182;2022-09-09T11:03:32;3.90;;;2.90;;
37477;SDS011;23334;54.316;10.182;2022-09-09T11:06:04;2.83;;;2.03;;
37477;SDS011;23334;54.316;10.182;2022-09-09T11:08:31;2.23;;;2.03;;
37477;SDS011;23334;54.316;10.182;2022-09-09T11:11:12;2.90;;;2.13;;
37477;SDS011;23334;54.316;10.182;2022-09-09T11:14:02;2.63;;;2.50;;
37477;SDS011;23334;54.316;10.182;2022-09-09T11:16:47;4.03;;;3.30;;
37477;SDS011;23334;54.316;10.182;2022-09-09T11:21:55;2.57;;;2.37;;
37477;SDS011;23334;54.316;10.182;2022-09-09T11:24:24;4.50;;;2.47;;
37477;SDS011;23334;54.316;10.182;2022-09-09T11:26:55;1.90;;;1.50;;
37477;SDS011;23334;54.316;10.182;2022-09-09T11:41:06;2.03;;;1.77;;
37477;SDS011;23334;54.316;10.182;2022-09-09T11:43:45;2.13;;;1.93;;
37477;SDS011;23334;54.316;10.182;2022-09-09T11:46:16;7.50;;;1.40;;
37477;SDS011;23334;54.316;10.182;2022-09-09T11:49:04;2.27;;;1.40;;
37477;SDS011;23334;54.316;10.182;2022-09-09T11:51:49;1.23;;;1.13;;
37477;SDS011;23334;54.316;10.182;2022-09-09T11:54:26;2.00;;;1.40;;
37477;SDS011;23334;54.316;10.182;2022-09-09T11:56:58;1.20;;;1.10;;
37477;SDS011;23334;54.316;10.182;2022-09-09T11:59:31;2.67;;;1.27;;
37477;SDS011;23334;54.316;10.182;2022-09-09T12:01:58;2.37;;;1.30;;
37477;SDS011;23334;54.316;10.182;2022-09-09T12:05:17;1.23;;;1.10;;
37477;SDS011;23334;54.316;10.182;2022-09-09T12:10:32;1.10;;;1.00;;
37477;SDS011;23334;54.316;10.182;2022-09-09T12:15:54;4.20;;;0.87;;
37477;SDS011;23334;54.316;10.182;2022-09-09T12:18:25;0.90;;;0.83;;
37477;SDS011;23334;54.316;10.182;2022-09-09T12:34:35;1.77;;;0.87;;
37477;SDS011;23334;54.316;10.182;2022-09-09T12:37:11;1.43;;;0.70;;
37477;SDS011;23334;54.316;10.182;2022-09-09T12:39:59;3.33;;;1.10;;
37477;SDS011;23334;54.316;10.182;2022-09-09T12:42:44;2.80;;;0.90;;
37477;SDS011;23334;54.316;10.182;2022-09-09T12:45:22;1.03;;;0.90;;
37477;SDS011;23334;54.316;10.182;2022-09-09T12:50:49;0.90;;;0.67;;
37477;SDS011;23334;54.316;10.182;2022-09-09T12:53:24;7.13;;;1.73;;
37477;SDS011;23334;54.316;10.182;2022-09-09T12:58:25;1.10;;;1.00;;
37477;SDS011;23334;54.316;10.182;2022-09-09T13:00:53;1.00;;;0.83;;
37477;SDS011;23334;54.316;10.182;2022-09-09T13:03:24;2.20;;;1.10;;
37477;SDS011;23334;54.316;10.182;2022-09-09T13:05:50;1.30;;;0.90;;
37477;SDS011;23334;54.316;10.182;2022-09-09T13:08:17;4.53;;;1.20;;
37477;SDS011;23334;54.316;10.182;2022-09-09T13:13:28;2.47;;;1.17;;
37477;SDS011;23334;54.316;10.182;2022-09-09T13:15:59;3.30;;;0.80;;
37477;SDS011;23334;54.316;10.182;2022-09-09T13:18:29;1.57;;;0.90;;
37477;SDS011;23334;54.316;10.182;2022-09-09T13:20:58;1.60;;;1.47;;
37477;SDS011;23334;54.316;10.182;2022-09-09T13:23:47;2.47;;;1.27;;
37477;SDS011;23334;54.316;10.182;2022-09-09T13:26:24;0.90;;;0.70;;
37477;SDS011;23334;54.316;10.182;2022-09-09T13:28:52;1.10;;;0.80;;
37477;SDS011;23334;54.316;10.182;2022-09-09T13:31:29;4.33;;;1.07;;
37477;SDS011;23334;54.316;10.182;2022-09-09T13:33:57;1.83;;;1.30;;
37477;SDS011;23334;54.316;10.182;2022-09-09T13:36:29;2.97;;;0.77;;
37477;SDS011;23334;54.316;10.182;2022-09-09T13:38:57;1.50;;;1.10;;
37477;SDS011;23334;54.316;10.182;2022-09-09T13:41:32;2.67;;;1.17;;
37477;SDS011;23334;54.316;10.182;2022-09-09T13:43:59;5.43;;;1.13;;
37477;SDS011;23334;54.316;10.182;2022-09-09T13:46:35;1.27;;;0.80;;
37477;SDS011;23334;54.316;10.182;2022-09-09T13:51:38;5.23;;;1.00;;
37477;SDS011;23334;54.316;10.182;2022-09-09T13:54:12;2.67;;;1.07;;
37477;SDS011;23334;54.316;10.182;2022-09-09T13:56:39;1.20;;;1.10;;
37477;SDS011;23334;54.316;10.182;2022-09-09T13:59:09;1.50;;;1.40;;
37477;SDS011;23334;54.316;10.182;2022-09-09T14:01:39;3.07;;;1.10;;
37477;SDS011;23334;54.316;10.182;2022-09-09T14:04:05;2.67;;;1.03;;
37477;SDS011;23334;54.316;10.182;2022-09-09T14:06:32;3.23;;;1.10;;
37477;SDS011;23334;54.316;10.182;2022-09-09T14:09:01;1.67;;;1.10;;
37477;SDS011;23334;54.316;10.182;2022-09-09T14:11:26;1.90;;;0.83;;
37477;SDS011;23334;54.316;10.182;2022-09-09T14:13:54;1.60;;;0.83;;
37477;SDS011;23334;54.316;10.182;2022-09-09T14:16:20;1.67;;;0.90;;
37477;SDS011;23334;54.316;10.182;2022-09-09T14:18:46;1.40;;;1.00;;
37477;SDS011;23334;54.316;10.182;2022-09-09T14:21:12;0.80;;;0.80;;
37477;SDS011;23334;54.316;10.182;2022-09-09T14:23:39;3.17;;;0.87;;
37477;SDS011;23334;54.316;10.182;2022-09-09T14:26:05;1.53;;;0.70;;
37477;SDS011;23334;54.316;10.182;2022-09-09T14:28:32;2.60;;;0.60;;
37477;SDS011;23334;54.316;10.182;2022-09-09T14:31:03;1.40;;;0.50;;
37477;SDS011;23334;54.316;10.182;2022-09-09T14:33:29;0.80;;;0.60;;
37477;SDS011;23334;54.316;10.182;2022-09-09T14:35:58;0.80;;;0.60;;
37477;SDS011;23334;54.316;10.182;2022-09-09T14:38:28;1.00;;;0.90;;
37477;SDS011;23334;54.316;10.182;2022-09-09T14:40:55;0.90;;;0.73;;
37477;SDS011;23334;54.316;10.182;2022-09-09T14:43:21;1.07;;;0.70;;
37477;SDS011;23334;54.316;10.182;2022-09-09T14:45:47;1.00;;;0.90;;
37477;SDS011;23334;54.316;10.182;2022-09-09T14:48:16;1.57;;;0.97;;
37477;SDS011;23334;54.316;10.182;2022-09-09T14:50:42;1.53;;;1.30;;
37477;SDS011;23334;54.316;10.182;2022-09-09T14:53:08;3.60;;;1.73;;
37477;SDS011;23334;54.316;10.182;2022-09-09T14:55:35;4.33;;;1.43;;
37477;SDS011;23334;54.316;10.182;2022-09-09T14:58:01;2.13;;;1.30;;
37477;SDS011;23334;54.316;10.182;2022-09-09T15:00:26;3.90;;;1.30;;
37477;SDS011;23334;54.316;10.182;2022-09-09T15:02:55;1.20;;;1.10;;
37477;SDS011;23334;54.316;10.182;2022-09-09T15:05:21;1.00;;;0.90;;
37477;SDS011;23334;54.316;10.182;2022-09-09T15:07:47;2.13;;;1.53;;
37477;SDS011;23334;54.316;10.182;2022-09-09T15:10:15;3.37;;;1.20;;
37477;SDS011;23334;54.316;10.182;2022-09-09T15:12:42;8.47;;;1.50;;
37477;SDS011;23334;54.316;10.182;2022-09-09T15:15:08;1.90;;;1.80;;
37477;SDS011;23334;54.316;10.182;2022-09-09T15:17:37;1.60;;;1.40;;
37477;SDS011;23334;54.316;10.182;2022-09-09T15:20:04;4.13;;;1.50;;
37477;SDS011;23334;54.316;10.182;2022-09-09T15:22:30;3.97;;;1.57;;
37477;SDS011;23334;54.316;10.182;2022-09-09T15:24:56;1.87;;;1.70;;
37477;SDS011;23334;54.316;10.182;2022-09-09T15:27:22;2.33;;;1.90;;
37477;SDS011;23334;54.316;10.182;2022-09-09T15:29:49;1.77;;;1.60;;
37477;SDS011;23334;54.316;10.182;2022-09-09T15:32:16;3.10;;;2.17;;
37477;SDS011;23334;54.316;10.182;2022-09-09T15:34:42;4.13;;;2.33;;
37477;SDS011;23334;54.316;10.182;2022-09-09T15:37:12;3.30;;;2.37;;
37477;SDS011;23334;54.316;10.182;2022-09-09T15:39:38;3.60;;;2.80;;
37477;SDS011;23334;54.316;10.182;2022-09-09T15:42:04;2.53;;;2.33;;
37477;SDS011;23334;54.316;10.182;2022-09-09T15:44:29;3.70;;;3.10;;
37477;SDS011;23334;54.316;10.182;2022-09-09T15:47:02;2.90;;;2.70;;
37477;SDS011;23334;54.316;10.182;2022-09-09T15:49:28;3.70;;;3.23;;
37477;SDS011;23334;54.316;10.182;2022-09-09T15:51:54;5.17;;;2.70;;
37477;SDS011;23334;54.316;10.182;2022-09-09T15:54:22;2.40;;;2.27;;
37477;SDS011;23334;54.316;10.182;2022-09-09T15:56:53;6.73;;;2.50;;
37477;SDS011;23334;54.316;10.182;2022-09-09T15:59:24;2.50;;;2.30;;
37477;SDS011;23334;54.316;10.182;2022-09-09T16:01:52;2.00;;;1.90;;
37477;SDS011;23334;54.316;10.182;2022-09-09T16:04:18;2.00;;;1.73;;
37477;SDS011;23334;54.316;10.182;2022-09-09T16:06:50;1.97;;;1.87;;
37477;SDS011;23334;54.316;10.182;2022-09-09T16:09:18;1.90;;;1.63;;
37477;SDS011;23334;54.316;10.182;2022-09-09T16:11:44;1.93;;;1.83;;
37477;SDS011;23334;54.316;10.182;2022-09-09T16:14:10;2.93;;;2.23;;
37477;SDS011;23334;54.316;10.182;2022-09-09T16:16:36;2.43;;;2.23;;
37477;SDS011;23334;54.316;10.182;2022-09-09T16:19:03;3.23;;;2.13;;
37477;SDS011;23334;54.316;10.182;2022-09-09T16:21:32;3.63;;;2.47;;
37477;SDS011;23334;54.316;10.182;2022-09-09T16:24:00;7.80;;;2.17;;
37477;SDS011;23334;54.316;10.182;2022-09-09T16:26:32;2.33;;;2.20;;
37477;SDS011;23334;54.316;10.182;2022-09-09T16:29:00;3.37;;;2.30;;
37477;SDS011;23334;54.316;10.182;2022-09-09T16:31:28;2.30;;;2.13;;
37477;SDS011;23334;54.316;10.182;2022-09-09T16:33:54;1.83;;;1.73;;
37477;SDS011;23334;54.316;10.182;2022-09-09T16:36:22;2.70;;;2.47;;
37477;SDS011;23334;54.316;10.182;2022-09-09T16:38:51;1.50;;;1.40;;